Defiance, Iowa
Current Conditions -  °F | °C
As of 2:35 AM on Monday 24 Nov 2014 (Local Time) from KDNS Reporting Station
Overcast Overcast  
Wind Chill: 14°   Ceiling: 2200
Heat Index: 27°   Visibility: 10mi
Dew Point: 19°   Wind: 17mph
Humidity: 74%   Direction: 320°NW
Pressure: 29.48"   Gusts: 29mph
Location:  41.82°N, 95.34°W
Report Text: KDNS 240835Z AUTO 32015G25KT 10SM OVC022 M03/M07 A2948 RMK AO2
Loading
Personal Weather Stations






























Interactive Weather Map New forecast layout! Learn more

10-Day Weather Forecast

Advertisements
Track Severe Weather on mobile